createdAt,value
2023-02-20T00:02:02.800Z,99195.73
2023-02-20T00:04:36.154Z,99204.52
2023-02-20T00:07:07.599Z,99207.80
2023-02-20T00:09:35.865Z,99215.20
2023-02-20T00:12:04.254Z,99222.60
2023-02-20T00:14:32.578Z,99218.16
2023-02-20T00:17:03.005Z,99216.42
2023-02-20T00:19:34.163Z,99224.02
2023-02-20T00:22:04.751Z,99224.00
2023-02-20T00:24:33.217Z,99241.89
2023-02-20T00:27:07.186Z,99251.86
2023-02-20T00:29:35.217Z,99258.73
2023-02-20T00:32:06.486Z,99266.83
2023-02-20T00:34:37.323Z,99267.00
2023-02-20T00:37:08.882Z,99270.45
2023-02-20T00:39:39.512Z,99268.38
2023-02-20T00:42:07.950Z,99266.84
2023-02-20T00:44:40.013Z,99257.39
2023-02-20T00:47:08.902Z,99260.32
2023-02-20T00:49:41.624Z,99257.91
2023-02-20T00:52:15.537Z,99255.84
2023-02-20T00:54:44.088Z,99251.36
2023-02-20T00:57:16.618Z,99259.63
2023-02-20T00:59:48.780Z,99273.38
2023-02-20T01:02:21.465Z,99279.92
2023-02-20T01:04:53.162Z,99286.27
2023-02-20T01:07:24.500Z,99281.82
2023-02-20T01:09:55.332Z,99282.50
2023-02-20T01:12:23.772Z,99282.85
2023-02-20T01:14:54.838Z,99281.30
2023-02-20T01:17:22.886Z,99286.11
2023-02-20T01:19:55.948Z,99293.16
2023-02-20T01:22:32.138Z,99301.40
2023-02-20T01:25:06.814Z,99301.23
2023-02-20T01:27:35.178Z,99306.05
2023-02-20T01:30:04.442Z,99312.07
2023-02-20T01:32:37.764Z,99317.57
2023-02-20T01:35:09.496Z,99329.44
2023-02-20T01:37:40.482Z,99334.59
2023-02-20T01:40:24.421Z,99335.79
2023-02-20T01:43:02.963Z,99330.80
2023-02-20T01:45:36.160Z,99330.98
2023-02-20T01:48:07.882Z,99336.81
2023-02-20T01:50:42.415Z,99343.35
2023-02-20T01:53:21.659Z,99357.80
2023-02-20T01:55:59.586Z,99361.74
2023-02-20T01:58:34.405Z,99359.34
2023-02-20T02:01:08.436Z,99352.98
2023-02-20T02:03:50.442Z,99361.73
2023-02-20T02:06:25.673Z,99356.59
2023-02-20T02:09:06.622Z,99357.95
2023-02-20T02:11:40.514Z,99361.39
2023-02-20T02:14:10.893Z,99361.75
2023-02-20T02:16:48.352Z,99362.09
2023-02-20T02:19:41.566Z,99362.59
2023-02-20T02:22:26.858Z,99364.13
2023-02-20T02:25:21.147Z,99371.71
2023-02-20T02:28:10.694Z,99378.23
2023-02-20T02:31:07.114Z,99383.73
2023-02-20T02:34:00.386Z,99382.71
2023-02-20T02:37:11.955Z,99387.69
2023-02-20T02:40:04.699Z,99391.83
2023-02-20T02:42:54.707Z,99387.36
2023-02-20T02:45:38.970Z,99390.63
2023-02-20T02:48:31.700Z,99396.98
2023-02-20T02:51:18.682Z,99389.24
2023-02-20T02:54:20.882Z,99394.92
2023-02-20T02:57:15.633Z,99406.60
2023-02-20T02:59:57.735Z,99408.33
2023-02-20T03:02:36.213Z,99421.39
2023-02-20T03:05:10.904Z,99424.30
2023-02-20T03:07:54.508Z,99420.67
2023-02-20T03:10:38.521Z,99421.02
2023-02-20T03:13:19.040Z,99426.68
2023-02-20T03:16:01.621Z,99431.32
2023-02-20T03:18:51.968Z,99441.62
2023-02-20T03:21:42.335Z,99457.08
2023-02-20T03:24:48.593Z,99464.96
2023-02-20T03:28:17.176Z,99485.39
2023-02-20T03:31:36.452Z,99488.99
2023-02-20T03:34:39.724Z,99497.40
2023-02-20T03:37:36.230Z,99490.85
2023-02-20T03:40:28.422Z,99495.30
2023-02-20T03:43:25.896Z,99504.40
2023-02-20T03:46:07.063Z,99508.69
2023-02-20T03:48:50.439Z,99515.93
2023-02-20T03:51:22.912Z,99528.97
2023-02-20T03:53:58.522Z,99540.11
2023-02-20T03:56:35.396Z,99541.41
2023-02-20T03:59:19.083Z,99543.11
2023-02-20T04:01:58.094Z,99548.08
2023-02-20T04:04:34.104Z,99552.70
2023-02-20T04:07:05.569Z,99554.90
2023-02-20T04:09:36.824Z,99556.40
2023-02-20T04:12:09.360Z,99562.40
2023-02-20T04:14:40.529Z,99568.71
2023-02-20T04:17:14.239Z,99581.05
2023-02-20T04:19:42.970Z,99585.14
2023-02-20T04:22:19.926Z,99591.79
2023-02-20T04:25:03.717Z,99596.92
2023-02-20T04:27:32.563Z,99601.17
2023-02-20T04:30:01.291Z,99608.02
2023-02-20T04:32:29.724Z,99606.98
2023-02-20T04:35:03.477Z,99621.89
2023-02-20T04:37:34.482Z,99626.34
2023-02-20T04:40:03.047Z,99629.08
2023-02-20T04:42:38.391Z,99626.83
2023-02-20T04:45:07.092Z,99627.98
2023-02-20T04:47:43.974Z,99635.00
2023-02-20T04:50:25.793Z,99631.71
2023-02-20T04:53:05.668Z,99634.08
2023-02-20T04:55:34.653Z,99637.30
2023-02-20T04:58:09.444Z,99643.43
2023-02-20T05:00:50.408Z,99649.04
2023-02-20T05:03:18.575Z,99661.71
2023-02-20T05:05:50.094Z,99670.42
2023-02-20T05:08:18.419Z,99673.64
2023-02-20T05:10:51.828Z,99673.78
2023-02-20T05:13:23.126Z,99677.15
2023-02-20T05:15:51.181Z,99686.05
2023-02-20T05:18:27.972Z,99697.67
2023-02-20T05:21:17.718Z,99703.42
2023-02-20T05:23:58.612Z,99705.30
2023-02-20T05:26:35.036Z,99712.10
2023-02-20T05:29:10.039Z,99715.47
2023-02-20T05:31:42.005Z,99714.89
2023-02-20T05:34:16.212Z,99714.00
2023-02-20T05:36:47.704Z,99717.95
2023-02-20T05:39:16.041Z,99721.70
2023-02-20T05:41:46.895Z,99737.11
2023-02-20T05:44:18.107Z,99754.58
2023-02-20T05:46:51.377Z,99769.65
2023-02-20T05:49:22.517Z,99774.94
2023-02-20T05:51:58.489Z,99775.09
2023-02-20T05:54:29.541Z,99781.21
2023-02-20T05:57:02.054Z,99791.98
2023-02-20T05:59:33.841Z,99794.52
2023-02-20T06:02:02.308Z,99800.34
2023-02-20T06:04:33.192Z,99791.42
2023-02-20T06:07:10.320Z,99795.89
2023-02-20T06:09:49.806Z,99800.01
2023-02-20T06:12:28.061Z,99806.51
2023-02-20T06:15:02.853Z,99810.48
2023-02-20T06:17:44.481Z,99810.35
2023-02-20T06:20:18.415Z,99813.52
2023-02-20T06:22:50.404Z,99813.79
2023-02-20T06:25:21.006Z,99818.02
2023-02-20T06:27:59.680Z,99823.14
2023-02-20T06:30:39.802Z,99824.27
2023-02-20T06:33:19.604Z,99825.41
2023-02-20T06:35:51.115Z,99824.14
2023-02-20T06:38:27.577Z,99825.20
2023-02-20T06:40:58.224Z,99826.49
2023-02-20T06:43:29.628Z,99831.39
2023-02-20T06:46:00.737Z,99835.64
2023-02-20T06:48:48.125Z,99839.65
2023-02-20T06:51:24.015Z,99845.23
2023-02-20T06:53:58.425Z,99851.14
2023-02-20T06:56:35.909Z,99855.11
2023-02-20T06:59:17.666Z,99849.83
2023-02-20T07:02:03.454Z,99847.97
2023-02-20T07:04:42.152Z,99844.97
2023-02-20T07:07:24.196Z,99858.27
2023-02-20T07:10:30.057Z,99858.18
2023-02-20T07:13:17.100Z,99852.93
2023-02-20T07:15:59.094Z,99856.76
2023-02-20T07:18:46.489Z,99860.09
2023-02-20T07:21:31.297Z,99859.80
2023-02-20T07:24:13.144Z,99863.81
2023-02-20T07:26:46.654Z,99866.27
2023-02-20T07:29:32.807Z,99865.23
2023-02-20T07:32:24.767Z,99864.08
2023-02-20T07:35:07.524Z,99861.00
2023-02-20T07:37:47.907Z,99856.25
2023-02-20T07:40:22.736Z,99851.38
2023-02-20T07:43:24.680Z,99848.83
2023-02-20T07:46:08.601Z,99855.96
2023-02-20T07:48:49.466Z,99862.62
2023-02-20T07:51:28.264Z,99866.42
2023-02-20T07:54:14.349Z,99885.49
2023-02-20T07:56:48.301Z,99891.45
2023-02-20T07:59:22.156Z,99894.01
2023-02-20T08:01:56.050Z,99892.12
2023-02-20T08:04:29.597Z,99897.63
2023-02-20T08:07:19.138Z,99892.63
2023-02-20T08:09:58.277Z,99892.25
2023-02-20T08:12:30.945Z,99888.02
2023-02-20T08:15:10.276Z,99882.77
2023-02-20T08:17:47.248Z,99883.35
2023-02-20T08:20:24.470Z,99879.46
2023-02-20T08:22:58.443Z,99874.38
2023-02-20T08:25:29.913Z,99873.73
2023-02-20T08:28:07.613Z,99872.06
2023-02-20T08:30:41.545Z,99870.37
2023-02-20T08:33:13.621Z,99873.31
2023-02-20T08:35:42.316Z,99872.65
2023-02-20T08:38:33.474Z,99872.54
2023-02-20T08:41:07.011Z,99867.41
2023-02-20T08:43:43.260Z,99860.75
2023-02-20T08:46:14.085Z,99863.38
2023-02-20T08:48:48.833Z,99865.14
2023-02-20T08:51:26.632Z,99871.20
2023-02-20T08:53:55.034Z,99868.15
2023-02-20T08:56:29.664Z,99861.99
2023-02-20T08:59:03.443Z,99860.11
2023-02-20T09:01:38.113Z,99861.66
2023-02-20T09:04:13.167Z,99858.75
2023-02-20T09:06:53.637Z,99852.58
2023-02-20T09:09:31.160Z,99853.64
2023-02-20T09:12:04.914Z,99847.81
2023-02-20T09:14:38.710Z,99842.83
2023-02-20T09:17:10.359Z,99840.77
2023-02-20T09:19:52.480Z,99842.34
2023-02-20T09:22:29.849Z,99845.27
2023-02-20T09:25:05.207Z,99840.29
2023-02-20T09:27:43.881Z,99838.23
2023-02-20T09:30:19.598Z,99840.84
2023-02-20T09:32:56.202Z,99833.29
2023-02-20T09:35:38.845Z,99832.96
2023-02-20T09:38:07.876Z,99829.36
2023-02-20T09:40:41.720Z,99835.06
2023-02-20T09:43:15.224Z,99839.04
2023-02-20T09:45:57.937Z,99841.65
2023-02-20T09:48:42.463Z,99837.00
2023-02-20T09:51:18.329Z,99826.85
2023-02-20T09:54:05.443Z,99821.88
2023-02-20T09:56:51.032Z,99822.23
2023-02-20T09:59:27.577Z,99825.34
2023-02-20T10:02:05.586Z,99821.02
2023-02-20T10:05:01.346Z,99818.96
2023-02-20T10:07:41.441Z,99821.56
2023-02-20T10:10:42.315Z,99822.78
2023-02-20T10:13:29.218Z,99811.76
2023-02-20T10:16:08.749Z,99812.63
2023-02-20T10:18:48.563Z,99803.34
2023-02-20T10:21:40.548Z,99797.13
2023-02-20T10:24:13.571Z,99798.34
2023-02-20T10:26:47.693Z,99790.94
2023-02-20T10:29:35.124Z,99778.52
2023-02-20T10:32:16.533Z,99763.70
2023-02-20T10:35:04.630Z,99755.23
2023-02-20T10:37:48.334Z,99752.29
2023-02-20T10:40:35.669Z,99746.59
2023-02-20T10:43:15.271Z,99740.73
2023-02-20T10:46:20.885Z,99735.01
2023-02-20T10:49:02.320Z,99727.92
2023-02-20T10:51:40.207Z,99720.84
2023-02-20T10:54:29.240Z,99715.12
2023-02-20T10:57:56.376Z,99707.30
2023-02-20T11:00:40.329Z,99706.38
2023-02-20T11:03:27.007Z,99707.38
2023-02-20T11:06:16.337Z,99701.29
2023-02-20T11:09:01.164Z,99702.25
2023-02-20T11:11:47.813Z,99699.26
2023-02-20T11:14:40.946Z,99698.67
2023-02-20T11:17:28.656Z,99695.98
2023-02-20T11:20:27.415Z,99696.61
2023-02-20T11:23:10.299Z,99689.98
2023-02-20T11:25:56.433Z,99689.15
2023-02-20T11:28:41.095Z,99687.17
2023-02-20T11:31:26.748Z,99681.05
2023-02-20T11:34:06.209Z,99675.98
2023-02-20T11:36:46.900Z,99664.15
2023-02-20T11:39:36.240Z,99657.11
2023-02-20T11:42:15.616Z,99651.20
2023-02-20T11:45:08.980Z,99647.65
2023-02-20T11:48:01.665Z,99644.79
2023-02-20T11:50:49.723Z,99642.85
2023-02-20T11:53:25.254Z,99643.59
2023-02-20T11:56:13.322Z,99647.07
2023-02-20T11:58:50.092Z,99646.40
2023-02-20T12:01:34.486Z,99640.70
2023-02-20T12:04:26.926Z,99636.38
2023-02-20T12:07:01.220Z,99628.11
2023-02-20T12:09:32.334Z,99630.20
2023-02-20T12:12:01.085Z,99623.13
2023-02-20T12:14:31.520Z,99633.95
2023-02-20T12:17:19.477Z,99646.61
2023-02-20T12:20:18.989Z,99638.20
2023-02-20T12:22:58.444Z,99637.48
2023-02-20T12:25:47.074Z,99641.61
2023-02-20T12:28:33.378Z,99640.83
2023-02-20T12:31:46.845Z,99628.76
2023-02-20T12:34:25.906Z,99616.52
2023-02-20T12:37:22.208Z,99612.77
2023-02-20T12:40:07.616Z,99615.00
2023-02-20T12:43:07.580Z,99627.34
2023-02-20T12:45:57.560Z,99624.17
2023-02-20T12:48:35.172Z,99620.46
2023-02-20T12:51:09.756Z,99614.77
2023-02-20T12:53:45.063Z,99614.02
2023-02-20T12:56:36.979Z,99611.30
2023-02-20T12:59:08.282Z,99615.41
2023-02-20T13:01:40.101Z,99605.89
2023-02-20T13:04:18.910Z,99599.65
2023-02-20T13:06:54.964Z,99590.73
2023-02-20T13:09:32.094Z,99583.24
2023-02-20T13:12:06.485Z,99576.23
2023-02-20T13:14:43.001Z,99573.04
2023-02-20T13:17:36.364Z,99576.94
2023-02-20T13:20:47.312Z,99572.31
2023-02-20T13:23:15.672Z,99570.78
2023-02-20T13:25:49.087Z,99576.04
2023-02-20T13:28:35.640Z,99579.64
2023-02-20T13:31:16.166Z,99576.03
2023-02-20T13:34:10.462Z,99582.29
2023-02-20T13:36:46.360Z,99590.23
2023-02-20T13:39:43.294Z,99580.31
2023-02-20T13:42:32.694Z,99580.55
2023-02-20T13:45:01.093Z,99580.88
2023-02-20T13:47:39.627Z,99592.11
2023-02-20T13:50:31.702Z,99584.95
2023-02-20T13:53:06.547Z,99586.80
2023-02-20T13:55:41.536Z,99589.03
2023-02-20T13:58:14.782Z,99582.65
2023-02-20T14:00:51.627Z,99581.05
2023-02-20T14:07:00.748Z,99579.90
2023-02-20T14:23:42.441Z,99583.28
2023-02-20T14:33:32.816Z,99580.71
2023-02-20T15:42:21.151Z,99617.95
2023-02-20T15:49:20.504Z,99629.66
2023-02-20T15:52:40.515Z,99631.04
2023-02-20T15:55:48.913Z,99638.80
2023-02-20T16:02:14.104Z,99641.02
2023-02-20T16:11:52.674Z,99666.30
2023-02-20T16:24:56.093Z,99644.77
2023-02-20T16:28:03.752Z,99636.15
2023-02-20T16:31:09.585Z,99628.93
2023-02-20T16:37:14.850Z,99609.30
2023-02-20T17:04:07.738Z,99578.34
2023-02-20T17:13:28.674Z,99575.75
2023-02-20T17:19:22.547Z,99565.57
2023-02-20T17:25:16.185Z,99555.41
2023-02-20T17:31:20.303Z,99522.21
2023-02-20T17:39:57.250Z,99517.05
2023-02-20T17:42:51.704Z,99511.71
2023-02-20T17:45:47.116Z,99490.55
2023-02-20T17:51:35.377Z,99480.06
2023-02-20T17:54:23.442Z,99487.45
2023-02-20T18:00:22.886Z,99472.66
2023-02-20T18:06:12.931Z,99451.85
2023-02-20T18:08:51.655Z,99452.53
2023-02-20T18:11:44.121Z,99457.17
2023-02-20T18:14:26.771Z,99446.51
2023-02-20T18:17:10.906Z,99448.23
2023-02-20T18:19:46.731Z,99460.79
2023-02-20T18:22:21.330Z,99444.27
2023-02-20T18:24:50.812Z,99440.31
2023-02-20T18:27:37.038Z,99432.75
2023-02-20T18:30:15.592Z,99426.05
2023-02-20T18:32:52.001Z,99421.05
2023-02-20T18:35:31.198Z,99405.92
2023-02-20T18:38:10.696Z,99392.16
2023-02-20T18:40:46.471Z,99398.69
2023-02-20T18:43:18.754Z,99412.44
2023-02-20T18:45:55.048Z,99411.93
2023-02-20T18:48:37.194Z,99414.51
2023-02-20T18:51:10.709Z,99407.98
2023-02-20T18:53:49.941Z,99407.63
2023-02-20T18:56:26.648Z,99396.27
2023-02-20T18:59:02.641Z,99390.42
2023-02-20T19:01:44.172Z,99376.68
2023-02-20T19:04:19.274Z,99362.76
2023-02-20T19:07:03.729Z,99358.29
2023-02-20T19:09:50.768Z,99344.71
2023-02-20T19:12:48.902Z,99336.63
2023-02-20T19:15:27.426Z,99340.08
2023-02-20T19:18:02.805Z,99333.04
2023-02-20T19:20:52.378Z,99330.28
2023-02-20T19:23:26.484Z,99331.15
2023-02-20T19:26:08.461Z,99319.80
2023-02-20T19:28:45.697Z,99318.60
2023-02-20T19:31:25.637Z,99311.21
2023-02-20T19:34:00.341Z,99301.94
2023-02-20T19:36:34.323Z,99295.74
2023-02-20T19:39:13.007Z,99285.78
2023-02-20T19:41:59.297Z,99290.42
2023-02-20T19:44:35.113Z,99285.95
2023-02-20T19:47:17.126Z,99286.65
2023-02-20T19:49:56.696Z,99285.27
2023-02-20T19:52:33.584Z,99285.09
2023-02-20T19:55:19.084Z,99279.43
2023-02-20T19:58:02.170Z,99271.86
2023-02-20T20:00:45.181Z,99269.98
2023-02-20T20:03:23.905Z,99270.15
2023-02-20T20:06:21.173Z,99267.05
2023-02-20T20:09:13.468Z,99257.77
2023-02-20T20:11:57.225Z,99252.80
2023-02-20T20:14:30.518Z,99247.80
2023-02-20T20:16:59.101Z,99238.02
2023-02-20T20:19:30.000Z,99236.12
2023-02-20T20:22:01.384Z,99234.23
2023-02-20T20:24:34.741Z,99227.89
2023-02-20T20:27:03.138Z,99219.30
2023-02-20T20:29:31.722Z,99210.53
2023-02-20T20:32:04.994Z,99207.95
2023-02-20T20:34:41.007Z,99197.98
2023-02-20T20:37:11.655Z,99193.67
2023-02-20T20:39:39.862Z,99186.10
2023-02-20T20:42:15.214Z,99181.26
2023-02-20T20:44:45.895Z,99177.30
2023-02-20T20:47:20.888Z,99181.39
2023-02-20T20:49:55.209Z,99175.13
2023-02-20T20:52:27.984Z,99175.39
2023-02-20T20:55:00.259Z,99164.48
2023-02-20T20:57:35.689Z,99162.50
2023-02-20T21:00:44.505Z,99149.28
2023-02-20T21:03:18.563Z,99146.09
2023-02-20T21:06:00.826Z,99149.27
2023-02-20T21:08:34.222Z,99150.06
2023-02-20T21:11:06.132Z,99148.67
2023-02-20T21:13:42.718Z,99160.73
2023-02-20T21:16:10.895Z,99166.21
2023-02-20T21:18:50.054Z,99166.69
2023-02-20T21:21:25.838Z,99159.23
2023-02-20T21:24:02.005Z,99161.58
2023-02-20T21:26:38.022Z,99157.89
2023-02-20T21:29:08.725Z,99165.58
2023-02-20T21:31:49.336Z,99167.41
2023-02-20T21:34:22.374Z,99161.52
2023-02-20T21:36:53.142Z,99167.21
2023-02-20T21:39:24.173Z,99169.08
2023-02-20T21:42:13.469Z,99166.65
2023-02-20T21:44:50.058Z,99176.95
2023-02-20T21:47:20.556Z,99181.58
2023-02-20T21:49:51.153Z,99182.59
2023-02-20T21:52:21.639Z,99181.89
2023-02-20T21:54:53.460Z,99179.65
2023-02-20T21:57:30.426Z,99178.41
2023-02-20T22:00:01.245Z,99165.98
2023-02-20T22:02:32.196Z,99166.16
2023-02-20T22:05:09.028Z,99157.71
2023-02-20T22:08:01.349Z,99140.66
2023-02-20T22:10:54.559Z,99134.77
2023-02-20T22:13:51.543Z,99133.38
2023-02-20T22:16:48.682Z,99130.45
2023-02-20T22:19:40.408Z,99129.57
2023-02-20T22:22:34.667Z,99126.91
2023-02-20T22:25:28.541Z,99120.02
2023-02-20T22:28:25.863Z,99121.23
2023-02-20T22:31:26.835Z,99122.94
2023-02-20T22:34:16.248Z,99119.44
2023-02-20T22:37:13.171Z,99115.79
2023-02-20T22:40:06.534Z,99110.60
2023-02-20T22:43:01.328Z,99100.40
2023-02-20T22:45:55.656Z,99091.43
2023-02-20T22:48:50.837Z,99086.95
2023-02-20T22:51:47.896Z,99087.80
2023-02-20T22:54:50.536Z,99085.41
2023-02-20T22:57:59.263Z,99087.48
2023-02-20T23:01:00.470Z,99075.91
2023-02-20T23:04:01.306Z,99074.88
2023-02-20T23:06:58.671Z,99074.20
2023-02-20T23:09:52.853Z,99081.45
2023-02-20T23:12:56.019Z,99081.50
2023-02-20T23:15:53.198Z,99083.74
2023-02-20T23:18:48.367Z,99081.82
2023-02-20T23:22:01.039Z,99080.39
2023-02-20T23:25:10.470Z,99076.41
2023-02-20T23:28:15.455Z,99078.13
2023-02-20T23:31:13.777Z,99079.80
2023-02-20T23:34:25.384Z,99070.80
2023-02-20T23:37:28.985Z,99060.45
2023-02-20T23:40:36.821Z,99055.11
2023-02-20T23:43:33.621Z,99045.92
2023-02-20T23:46:34.808Z,99037.14
2023-02-20T23:49:53.209Z,99030.09
2023-02-20T23:52:46.404Z,99029.59
2023-02-20T23:55:33.628Z,99033.54
2023-02-20T23:58:26.423Z,99027.09
